Latest Coastal Weather Observations for Mandora

IDW60701

Issued at 6:42 am WST Sunday 31 May 2015 (issued every 10 minutes, with the page automatically refreshed every 10 minutes)

About coastal observations | Map of coastal stations | Coastal observations for WA | Marine services | Other Formats
Station Details ID: 004019 Name: MANDORA Lat: -19.74 Lon: 120.84 Height: 7.5 m
Data from the previous 72 hours. | See also: Recent months at Mandora
Date/Time
WST
Temp

°C
Wind Pressure Rain
since 9am
mm
Weather Cloud Vis
km
Sea
Height
m
Swell
Dir
 
Speed
knots
Gust
knots
hPa Trend Height
m
Period
s
Dir
31/06:30am 17.8 SSE 9 14 1015.9 - 0.0 - - - - - - -
31/06:00am 17.8 SSE 9 14 1015.8 - 0.0 - - - - - - -
31/05:30am 17.7 SE 8 14 1015.6 - 0.0 - - - - - - -
31/05:00am 17.7 SE 9 13 1015.3 - 0.0 - - - - - - -
31/04:30am 18.0 SE 9 15 1015.4 - 0.0 - - - - - - -
31/04:00am 18.1 SE 9 15 1015.6 - 0.0 - - - - - - -
31/03:30am 18.3 SE 9 17 1015.5 - 0.0 - - - - - - -
31/03:00am 18.4 SE 10 15 1015.6 - 0.0 - - - - - - -
31/02:30am 18.5 SE 9 13 1015.8 - 0.0 - - - - - - -
31/02:00am 18.7 SE 9 14 1015.7 - 0.0 - - - - - - -
31/01:30am 19.0 SE 10 14 1015.9 - 0.0 - - - - - - -
31/01:00am 19.2 SE 10 17 1016.0 - 0.0 - - - - - - -
31/12:30am 19.5 SE 10 15 1016.4 - 0.0 - - - - - - -
31/12:00am 19.7 SE 10 16 1016.3 - 0.0 - - - - - - -
 
Date/Time
WST
Temp

°C
Wind Pressure Rain
since 9am
mm
Weather Cloud Vis
km
Sea
Height
m
Swell
Dir
 
Speed
knots
Gust
knots
hPa Trend Height
m
Period
s
Dir
30/11:30pm 20.0 SE 9 16 1016.7 - 0.0 - - - - - - -
30/11:00pm 20.2 SSE 10 18 1017.1 - 0.0 - - - - - - -
30/10:30pm 20.5 SSE 10 18 1017.3 - 0.0 - - - - - - -
30/10:00pm 20.8 SSE 10 17 1017.5 - 0.0 - - - - - - -
30/09:30pm 21.0 SE 10 16 1017.4 - 0.0 - - - - - - -
30/09:00pm 21.5 SE 11 18 1017.5 - 0.0 - - - - - - -
30/08:30pm 21.7 SSE 9 16 1017.3 - 0.0 - - - - - - -
30/08:00pm 22.3 SSE 12 19 1017.2 - 0.0 - - - - - - -
30/07:30pm 22.9 SSE 12 17 1017.0 - 0.0 - - - - - - -
30/07:00pm 23.5 SSE 12 18 1016.6 - 0.0 - - - - - - -
30/06:30pm 24.1 SSE 11 16 1016.1 - 0.0 - - - - - - -
30/06:00pm 25.0 SSE 12 20 1015.7 - 0.0 - - - - - - -
30/05:30pm 25.8 SSE 11 16 1015.1 - 0.0 - - - - - - -
30/05:00pm 26.9 SSE 12 18 1014.9 - 0.0 - - - - - - -
30/04:30pm 28.2 SSE 9 16 1014.4 - 0.0 - - - - - - -
30/04:00pm 29.1 SSE 12 16 1013.9 - 0.0 - - - - - - -
30/03:30pm 29.4 S 10 16 1013.6 - 0.0 - - - - - - -
30/03:00pm 29.9 SSE 11 16 1013.4 - 0.0 - - - - - - -
30/02:30pm 29.9 SSE 10 16 1013.5 - 0.0 - - - - - - -
30/02:00pm 30.1 SSE 10 15 1013.7 - 0.0 - - - - - - -
30/01:30pm 29.6 SSE 12 17 1014.0 - 0.0 - - - - - - -
30/01:00pm 29.1 SSE 11 18 1014.3 - 0.0 - - - - - - -
30/12:30pm 28.9 SE 12 19 1014.9 - 0.0 - - - - - - -
30/12:00pm 29.0 SSE 11 18 1015.6 - 0.0 - - - - - - -
30/11:30am 27.9 SSE 12 19 1016.2 - 0.0 - - - - - - -
30/11:00am 27.2 SE 11 18 1016.7 - 0.0 - - - - - - -
30/10:30am 26.7 SE 10 16 1017.2 - 0.0 - - - - - - -
30/10:00am 25.6 SSE 12 16 1017.7 - 0.0 - - - - - - -
30/09:30am 25.1 SE 12 17 1018.0 - 0.0 - - - - - - -
30/09:00am 24.7 SE 11 18 1018.1 - 0.0 - - - - - - -
30/08:30am 23.6 SE 12 18 1018.0 - 0.0 - - - - - - -
30/08:00am 22.5 SE 10 17 1017.8 - 0.0 - - - - - - -
30/07:30am 21.9 SE 10 15 1017.4 - 0.0 - - - - - - -
30/07:00am 21.0 SE 8 13 1017.3 - 0.0 - - - - - - -
30/06:30am 20.8 SSE 8 14 1017.1 - 0.0 - - - - - - -
30/06:00am 21.0 SSE 8 14 1016.8 - 0.0 - - - - - - -
30/05:30am 21.1 SSE 8 14 1016.7 - 0.0 - - - - - - -
30/05:00am 21.0 SSE 8 13 1016.5 - 0.0 - - - - - - -
30/04:30am 20.9 SSE 8 11 1016.4 - 0.0 - - - - - - -
30/04:00am 21.0 SE 7 12 1016.1 - 0.0 - - - - - - -
30/03:30am 21.1 SE 7 12 1016.1 - 0.0 - - - - - - -
30/03:00am 21.4 SE 7 13 1016.1 - 0.0 - - - - - - -
30/02:30am 21.8 SE 6 11 1016.3 - 0.0 - - - - - - -
30/02:00am 22.1 SE 7 12 1016.6 - 0.0 - - - - - - -
30/01:30am 22.4 SE 8 13 1016.6 - 0.0 - - - - - - -
30/01:00am 22.6 SE 6 11 1016.7 - 0.0 - - - - - - -
30/12:30am 23.0 SE 6 9 1016.8 - 0.0 - - - - - - -
30/12:00am 23.5 SSE 7 11 1016.9 - 0.0 - - - - - - -
 
Date/Time
WST
Temp

°C
Wind Pressure Rain
since 9am
mm
Weather Cloud Vis
km
Sea
Height
m
Swell
Dir
 
Speed
knots
Gust
knots
hPa Trend Height
m
Period
s
Dir
29/11:30pm 23.8 SSE 7 10 1016.9 - 0.0 - - - - - - -
29/11:00pm 24.1 SSE 6 12 1016.9 - 0.0 - - - - - - -
29/10:30pm 24.4 SE 7 11 1016.9 - 0.0 - - - - - - -
29/10:00pm 24.9 SE 7 12 1016.8 - 0.0 - - - - - - -
29/09:30pm 25.2 SE 7 11 1016.5 - 0.0 - - - - - - -
29/09:00pm 25.9 SSE 8 12 1016.4 - 0.0 - - - - - - -
29/08:30pm 26.5 SSE 9 14 1016.4 - 0.0 - - - - - - -
29/08:00pm 26.8 S 9 14 1016.1 - 0.0 - - - - - - -
29/07:30pm 26.1 S 5 6 1015.8 - 0.0 - - - - - - -
29/07:00pm 27.2 S 6 8 1015.4 - 0.0 - - - - - - -
29/06:30pm 26.8 S 4 6 1015.0 - 0.0 - - - - - - -
29/06:00pm 26.5 WNW 4 6 1014.5 - 0.0 - - - - - - -
29/05:30pm 27.4 W 5 7 1014.0 - 0.0 - - - - - - -
29/05:00pm 28.8 WNW 6 9 1013.7 - 0.0 - - - - - - -
29/04:30pm 30.2 WNW 7 11 1013.5 - 0.0 - - - - - - -
29/04:00pm 30.3 WNW 8 12 1013.2 - 0.0 - - - - - - -
29/03:30pm 31.5 WNW 6 9 1013.0 - 0.0 - - - - - - -
29/03:00pm 31.4 WNW 8 11 1013.1 - 0.0 - - - - - - -
29/02:30pm 32.0 WNW 8 11 1013.0 - 0.0 - - - - - - -
29/02:00pm 32.1 NW 7 11 1013.2 - 0.0 - - - - - - -
29/01:30pm 32.9 NW 6 10 1013.3 - 0.0 - - - - - - -
29/01:00pm 31.8 NNE 4 7 1013.6 - 0.0 - - - - - - -
29/12:30pm 32.5 WNW 3 5 1014.2 - 0.0 - - - - - - -
29/12:00pm 31.9 NE 4 7 1014.6 - 0.0 - - - - - - -
29/11:30am 31.7 E 5 9 1015.3 - 0.0 - - - - - - -
29/11:00am 30.4 E 5 10 1015.7 - 0.0 - - - - - - -
29/10:30am 29.1 ESE 6 9 1016.2 - 0.0 - - - - - - -
29/10:00am 27.8 SE 8 11 1016.4 - 0.0 - - - - - - -
29/09:30am 26.6 SE 9 14 1016.7 - 0.0 - - - - - - -
29/09:00am 25.7 SE 8 11 1016.9 - 0.0 - - - - - - -
29/08:30am 23.8 SE 9 13 1016.9 - 0.0 - - - - - - -
29/08:00am 22.5 SE 8 13 1016.6 - 0.0 - - - - - - -
29/07:30am 21.2 SE 6 9 1016.2 - 0.0 - - - - - - -
29/07:00am 19.8 SE 4 7 1015.9 - 0.0 - - - - - - -
29/06:30am 19.3 SSE 5 7 1015.5 - 0.0 - - - - - - -
29/06:00am 19.4 ESE 6 9 1014.8 - 0.0 - - - - - - -
29/05:30am 19.7 ESE 6 8 1014.7 - 0.0 - - - - - - -
29/05:00am 20.1 ESE 7 10 1014.5 - 0.0 - - - - - - -
29/04:30am 20.5 ESE 7 10 1014.4 - 0.0 - - - - - - -
29/04:00am 20.9 SE 7 12 1014.5 - 0.0 - - - - - - -
29/03:30am 21.2 SE 6 9 1014.6 - 0.0 - - - - - - -
29/03:00am 21.4 SE 7 11 1014.5 - 0.0 - - - - - - -
29/02:30am 21.5 SE 6 10 1014.6 - 0.0 - - - - - - -
29/02:00am 21.7 SE 6 10 1014.9 - 0.0 - - - - - - -
29/01:30am 22.0 SE 6 11 1014.9 - 0.0 - - - - - - -
29/01:00am 22.1 SE 6 10 1015.0 - 0.0 - - - - - - -
29/12:30am 22.4 SE 8 13 1015.1 - 0.0 - - - - - - -
29/12:00am 22.4 SSE 6 9 1015.1 - 0.0 - - - - - - -
 
Date/Time
WST
Temp

°C
Wind Pressure Rain
since 9am
mm
Weather Cloud Vis
km
Sea
Height
m
Swell
Dir
 
Speed
knots
Gust
knots
hPa Trend Height
m
Period
s
Dir
28/11:30pm 22.5 SSE 6 9 1015.3 - 0.0 - - - - - - -
28/11:00pm 22.8 SSE 6 9 1015.4 - 0.0 - - - - - - -
28/10:30pm 23.1 SSE 7 11 1015.4 - 0.0 - - - - - - -
28/10:00pm 23.5 SSE 7 9 1015.3 - 0.0 - - - - - - -
28/09:30pm 23.9 SSE 7 11 1015.2 - 0.0 - - - - - - -
28/09:00pm 24.3 SSE 8 11 1015.4 - 0.0 - - - - - - -
28/08:30pm 24.5 S 6 9 1015.3 - 0.0 - - - - - - -
28/08:00pm 25.0 S 7 9 1015.0 - 0.0 - - - - - - -
28/07:30pm 25.0 SSW 6 8 1014.7 - 0.0 - - - - - - -
28/07:00pm 25.2 WSW 8 10 1014.1 - 0.0 - - - - - - -
28/06:30pm 25.0 WSW 6 7 1013.8 - 0.0 - - - - - - -
28/06:00pm 26.0 W 4 6 1013.7 - 0.0 - - - - - - -
28/05:30pm 27.4 W 5 7 1013.4 - 0.0 - - - - - - -
28/05:00pm 28.4 NNW 4 6 1013.0 - 0.0 - - - - - - -
28/04:30pm 29.4 NNW 6 8 1012.8 - 0.0 - - - - - - -
28/04:00pm 30.1 N 7 9 1012.7 - 0.0 - - - - - - -
28/03:30pm 30.7 N 7 10 1012.4 - 0.0 - - - - - - -
28/03:00pm 31.4 N 8 14 1012.3 - 0.0 - - - - - - -
28/02:30pm 32.5 E 4 7 1012.3 - 0.0 - - - - - - -
28/02:00pm 31.6 NE 6 9 1012.3 - 0.0 - - - - - - -
28/01:30pm 32.5 ENE 5 9 1012.5 - 0.0 - - - - - - -
28/01:00pm 31.9 ENE 9 13 1012.8 - 0.0 - - - - - - -
28/12:30pm 31.5 E 8 13 1013.3 - 0.0 - - - - - - -
28/12:00pm 31.2 E 8 14 1013.9 - 0.0 - - - - - - -
28/11:30am 30.4 E 8 14 1014.3 - 0.0 - - - - - - -
28/11:00am 28.9 E 9 14 1014.9 - 0.0 - - - - - - -
28/10:30am 27.6 ESE 10 15 1015.4 - 0.0 - - - - - - -
28/10:00am 27.0 ESE 11 17 1016.0 - 0.0 - - - - - - -
28/09:30am 25.2 SE 10 15 1016.1 - 0.0 - - - - - - -
28/09:00am 23.5 ESE 9 18 1016.2 - 0.0 - - - - - - -
28/08:30am 23.0 ESE 9 14 1016.2 - 0.0 - - - - - - -
28/08:00am 22.0 ESE 9 13 1015.9 - 0.0 - - - - - - -
28/07:30am 21.3 ESE 7 11 1015.8 - 0.0 - - - - - - -
28/07:00am 20.7 ESE 6 9 1015.8 - 0.0 - - - - - - -

Other Formats:

Comma delimited format used in spreadsheet applications
http://www.bom.gov.au/fwo/IDW60701/IDW60701.94200.axf

JavaScript Object Notation format (JSON) in row-major order
http://www.bom.gov.au/fwo/IDW60701/IDW60701.94200.json